sensor_id;sensor_type;location;lat;lon;timestamp;P1;durP1;ratioP1;P2;durP2;ratioP2
5137;SDS011;53959;53.626;11.410;2022-11-20T00:02:24;12.73;;;8.70;;
5137;SDS011;53959;53.626;11.410;2022-11-20T00:04:49;13.63;;;8.50;;
5137;SDS011;53959;53.626;11.410;2022-11-20T00:07:15;12.93;;;8.53;;
5137;SDS011;53959;53.626;11.410;2022-11-20T00:09:40;14.77;;;8.13;;
5137;SDS011;53959;53.626;11.410;2022-11-20T00:12:06;11.80;;;7.60;;
5137;SDS011;53959;53.626;11.410;2022-11-20T00:14:31;14.47;;;8.10;;
5137;SDS011;53959;53.626;11.410;2022-11-20T00:16:57;11.20;;;7.53;;
5137;SDS011;53959;53.626;11.410;2022-11-20T00:19:22;11.70;;;8.03;;
5137;SDS011;53959;53.626;11.410;2022-11-20T00:21:48;12.97;;;7.40;;
5137;SDS011;53959;53.626;11.410;2022-11-20T00:24:16;9.93;;;7.43;;
5137;SDS011;53959;53.626;11.410;2022-11-20T00:26:42;18.50;;;8.27;;
5137;SDS011;53959;53.626;11.410;2022-11-20T00:29:08;17.67;;;9.20;;
5137;SDS011;53959;53.626;11.410;2022-11-20T00:31:35;11.97;;;8.37;;
5137;SDS011;53959;53.626;11.410;2022-11-20T00:34:00;15.20;;;7.80;;
5137;SDS011;53959;53.626;11.410;2022-11-20T00:36:27;8.87;;;6.90;;
5137;SDS011;53959;53.626;11.410;2022-11-20T00:38:54;12.40;;;7.83;;
5137;SDS011;53959;53.626;11.410;2022-11-20T00:41:22;10.97;;;8.20;;
5137;SDS011;53959;53.626;11.410;2022-11-20T00:43:49;11.23;;;8.60;;
5137;SDS011;53959;53.626;11.410;2022-11-20T00:46:16;9.40;;;7.60;;
5137;SDS011;53959;53.626;11.410;2022-11-20T00:48:44;8.67;;;6.90;;
5137;SDS011;53959;53.626;11.410;2022-11-20T00:51:11;9.97;;;7.00;;
5137;SDS011;53959;53.626;11.410;2022-11-20T00:53:38;8.30;;;6.93;;
5137;SDS011;53959;53.626;11.410;2022-11-20T00:56:07;8.43;;;7.00;;
5137;SDS011;53959;53.626;11.410;2022-11-20T00:58:36;10.80;;;7.90;;
5137;SDS011;53959;53.626;11.410;2022-11-20T01:01:13;10.10;;;7.50;;
5137;SDS011;53959;53.626;11.410;2022-11-20T01:03:47;13.60;;;7.27;;
5137;SDS011;53959;53.626;11.410;2022-11-20T01:06:21;11.83;;;7.43;;
5137;SDS011;53959;53.626;11.410;2022-11-20T01:08:48;11.40;;;8.10;;
5137;SDS011;53959;53.626;11.410;2022-11-20T01:11:16;9.67;;;7.30;;
5137;SDS011;53959;53.626;11.410;2022-11-20T01:13:43;14.03;;;8.50;;
5137;SDS011;53959;53.626;11.410;2022-11-20T01:16:17;9.47;;;7.57;;
5137;SDS011;53959;53.626;11.410;2022-11-20T01:18:45;13.47;;;6.87;;
5137;SDS011;53959;53.626;11.410;2022-11-20T01:21:15;12.27;;;7.80;;
5137;SDS011;53959;53.626;11.410;2022-11-20T01:23:43;9.77;;;6.87;;
5137;SDS011;53959;53.626;11.410;2022-11-20T01:26:10;10.33;;;7.80;;
5137;SDS011;53959;53.626;11.410;2022-11-20T01:28:38;11.30;;;8.10;;
5137;SDS011;53959;53.626;11.410;2022-11-20T01:31:15;14.80;;;8.13;;
5137;SDS011;53959;53.626;11.410;2022-11-20T01:33:49;9.00;;;7.33;;
5137;SDS011;53959;53.626;11.410;2022-11-20T01:36:17;13.00;;;7.80;;
5137;SDS011;53959;53.626;11.410;2022-11-20T01:38:43;9.83;;;7.30;;
5137;SDS011;53959;53.626;11.410;2022-11-20T01:41:10;9.73;;;7.27;;
5137;SDS011;53959;53.626;11.410;2022-11-20T01:43:56;6.67;;;5.97;;
5137;SDS011;53959;53.626;11.410;2022-11-20T01:46:22;7.47;;;6.70;;
5137;SDS011;53959;53.626;11.410;2022-11-20T01:48:55;10.23;;;6.27;;
5137;SDS011;53959;53.626;11.410;2022-11-20T01:51:50;10.10;;;7.00;;
5137;SDS011;53959;53.626;11.410;2022-11-20T01:54:25;8.83;;;6.40;;
5137;SDS011;53959;53.626;11.410;2022-11-20T01:56:58;10.57;;;7.77;;
5137;SDS011;53959;53.626;11.410;2022-11-20T01:59:25;12.23;;;7.30;;
5137;SDS011;53959;53.626;11.410;2022-11-20T02:01:53;12.37;;;7.53;;
5137;SDS011;53959;53.626;11.410;2022-11-20T02:04:19;11.83;;;7.70;;
5137;SDS011;53959;53.626;11.410;2022-11-20T02:06:47;11.30;;;7.33;;
5137;SDS011;53959;53.626;11.410;2022-11-20T02:09:16;7.97;;;7.13;;
5137;SDS011;53959;53.626;11.410;2022-11-20T02:11:42;10.60;;;7.90;;
5137;SDS011;53959;53.626;11.410;2022-11-20T02:14:08;10.03;;;7.70;;
5137;SDS011;53959;53.626;11.410;2022-11-20T02:16:35;14.60;;;8.07;;
5137;SDS011;53959;53.626;11.410;2022-11-20T02:19:05;14.50;;;8.03;;
5137;SDS011;53959;53.626;11.410;2022-11-20T02:21:39;9.33;;;7.13;;
5137;SDS011;53959;53.626;11.410;2022-11-20T02:26:45;9.33;;;7.80;;
5137;SDS011;53959;53.626;11.410;2022-11-20T02:29:16;11.77;;;8.60;;
5137;SDS011;53959;53.626;11.410;2022-11-20T02:31:48;9.57;;;7.57;;
5137;SDS011;53959;53.626;11.410;2022-11-20T02:34:13;10.10;;;7.80;;
5137;SDS011;53959;53.626;11.410;2022-11-20T02:36:39;9.63;;;8.07;;
5137;SDS011;53959;53.626;11.410;2022-11-20T02:39:06;10.87;;;7.17;;
5137;SDS011;53959;53.626;11.410;2022-11-20T02:41:35;9.13;;;7.47;;
5137;SDS011;53959;53.626;11.410;2022-11-20T02:44:02;7.90;;;7.10;;
5137;SDS011;53959;53.626;11.410;2022-11-20T02:46:28;9.70;;;7.20;;
5137;SDS011;53959;53.626;11.410;2022-11-20T02:48:54;10.03;;;6.83;;
5137;SDS011;53959;53.626;11.410;2022-11-20T02:51:20;8.20;;;6.63;;
5137;SDS011;53959;53.626;11.410;2022-11-20T02:53:46;10.50;;;7.13;;
5137;SDS011;53959;53.626;11.410;2022-11-20T02:56:12;7.67;;;6.93;;
5137;SDS011;53959;53.626;11.410;2022-11-20T02:58:37;7.70;;;6.77;;
5137;SDS011;53959;53.626;11.410;2022-11-20T03:01:03;9.67;;;7.23;;
5137;SDS011;53959;53.626;11.410;2022-11-20T03:03:28;10.00;;;7.63;;
5137;SDS011;53959;53.626;11.410;2022-11-20T03:05:54;8.70;;;6.83;;
5137;SDS011;53959;53.626;11.410;2022-11-20T03:08:19;9.07;;;6.33;;
5137;SDS011;53959;53.626;11.410;2022-11-20T03:10:45;11.10;;;7.37;;
5137;SDS011;53959;53.626;11.410;2022-11-20T03:13:10;9.83;;;7.97;;
5137;SDS011;53959;53.626;11.410;2022-11-20T03:15:36;14.50;;;7.70;;
5137;SDS011;53959;53.626;11.410;2022-11-20T03:18:02;13.10;;;8.40;;
5137;SDS011;53959;53.626;11.410;2022-11-20T03:20:28;11.57;;;8.10;;
5137;SDS011;53959;53.626;11.410;2022-11-20T03:22:54;11.57;;;8.10;;
5137;SDS011;53959;53.626;11.410;2022-11-20T03:25:20;11.73;;;7.60;;
5137;SDS011;53959;53.626;11.410;2022-11-20T03:27:45;14.13;;;8.90;;
5137;SDS011;53959;53.626;11.410;2022-11-20T03:30:11;12.10;;;8.10;;
5137;SDS011;53959;53.626;11.410;2022-11-20T03:32:37;12.87;;;8.70;;
5137;SDS011;53959;53.626;11.410;2022-11-20T03:35:03;11.23;;;8.70;;
5137;SDS011;53959;53.626;11.410;2022-11-20T03:37:28;14.00;;;9.00;;
5137;SDS011;53959;53.626;11.410;2022-11-20T03:39:54;10.27;;;8.53;;
5137;SDS011;53959;53.626;11.410;2022-11-20T03:42:19;13.73;;;9.30;;
5137;SDS011;53959;53.626;11.410;2022-11-20T03:45:04;12.03;;;8.53;;
5137;SDS011;53959;53.626;11.410;2022-11-20T03:47:29;13.77;;;9.17;;
5137;SDS011;53959;53.626;11.410;2022-11-20T03:49:55;15.47;;;9.20;;
5137;SDS011;53959;53.626;11.410;2022-11-20T03:52:20;13.23;;;8.13;;
5137;SDS011;53959;53.626;11.410;2022-11-20T03:54:46;15.53;;;8.90;;
5137;SDS011;53959;53.626;11.410;2022-11-20T03:57:11;12.23;;;7.70;;
5137;SDS011;53959;53.626;11.410;2022-11-20T03:59:37;17.47;;;8.00;;
5137;SDS011;53959;53.626;11.410;2022-11-20T04:02:02;8.37;;;6.70;;
5137;SDS011;53959;53.626;11.410;2022-11-20T04:04:28;9.40;;;7.00;;
5137;SDS011;53959;53.626;11.410;2022-11-20T04:06:53;14.10;;;8.13;;
5137;SDS011;53959;53.626;11.410;2022-11-20T04:09:19;12.17;;;8.30;;
5137;SDS011;53959;53.626;11.410;2022-11-20T04:11:44;13.30;;;8.60;;
5137;SDS011;53959;53.626;11.410;2022-11-20T04:14:14;11.50;;;8.53;;
5137;SDS011;53959;53.626;11.410;2022-11-20T04:16:41;15.83;;;9.50;;
5137;SDS011;53959;53.626;11.410;2022-11-20T04:19:09;12.60;;;8.77;;
5137;SDS011;53959;53.626;11.410;2022-11-20T04:21:37;10.30;;;8.60;;
5137;SDS011;53959;53.626;11.410;2022-11-20T04:24:02;14.07;;;8.90;;
5137;SDS011;53959;53.626;11.410;2022-11-20T04:26:28;11.03;;;8.40;;
5137;SDS011;53959;53.626;11.410;2022-11-20T04:28:55;14.90;;;9.70;;
5137;SDS011;53959;53.626;11.410;2022-11-20T04:31:22;12.53;;;8.00;;
5137;SDS011;53959;53.626;11.410;2022-11-20T04:33:49;14.17;;;9.40;;
5137;SDS011;53959;53.626;11.410;2022-11-20T04:36:16;11.87;;;8.57;;
5137;SDS011;53959;53.626;11.410;2022-11-20T04:38:43;14.57;;;9.67;;
5137;SDS011;53959;53.626;11.410;2022-11-20T04:41:14;13.63;;;8.60;;
5137;SDS011;53959;53.626;11.410;2022-11-20T04:43:41;15.53;;;9.17;;
5137;SDS011;53959;53.626;11.410;2022-11-20T04:46:10;15.67;;;8.93;;
5137;SDS011;53959;53.626;11.410;2022-11-20T04:48:36;12.13;;;8.90;;
5137;SDS011;53959;53.626;11.410;2022-11-20T04:51:04;14.00;;;8.80;;
5137;SDS011;53959;53.626;11.410;2022-11-20T04:53:30;13.90;;;9.20;;
5137;SDS011;53959;53.626;11.410;2022-11-20T04:56:00;12.97;;;9.07;;
5137;SDS011;53959;53.626;11.410;2022-11-20T04:58:26;9.50;;;8.50;;
5137;SDS011;53959;53.626;11.410;2022-11-20T05:00:51;13.23;;;8.07;;
5137;SDS011;53959;53.626;11.410;2022-11-20T05:03:17;11.40;;;8.57;;
5137;SDS011;53959;53.626;11.410;2022-11-20T05:05:42;11.30;;;8.33;;
5137;SDS011;53959;53.626;11.410;2022-11-20T05:08:08;12.83;;;8.73;;
5137;SDS011;53959;53.626;11.410;2022-11-20T05:10:33;11.90;;;7.53;;
5137;SDS011;53959;53.626;11.410;2022-11-20T05:12:59;11.30;;;7.70;;
5137;SDS011;53959;53.626;11.410;2022-11-20T05:15:24;13.73;;;7.67;;
5137;SDS011;53959;53.626;11.410;2022-11-20T05:17:50;9.47;;;7.47;;
5137;SDS011;53959;53.626;11.410;2022-11-20T05:20:17;13.40;;;8.70;;
5137;SDS011;53959;53.626;11.410;2022-11-20T05:22:43;10.23;;;8.70;;
5137;SDS011;53959;53.626;11.410;2022-11-20T05:25:09;13.10;;;8.33;;
5137;SDS011;53959;53.626;11.410;2022-11-20T05:27:35;10.80;;;8.33;;
5137;SDS011;53959;53.626;11.410;2022-11-20T05:30:02;13.40;;;8.93;;
5137;SDS011;53959;53.626;11.410;2022-11-20T05:32:28;12.77;;;9.47;;
5137;SDS011;53959;53.626;11.410;2022-11-20T05:34:54;10.80;;;8.13;;
5137;SDS011;53959;53.626;11.410;2022-11-20T05:37:19;12.77;;;8.10;;
5137;SDS011;53959;53.626;11.410;2022-11-20T05:39:45;15.80;;;9.10;;
5137;SDS011;53959;53.626;11.410;2022-11-20T05:42:10;10.70;;;8.00;;
5137;SDS011;53959;53.626;11.410;2022-11-20T05:44:55;11.90;;;7.90;;
5137;SDS011;53959;53.626;11.410;2022-11-20T05:47:20;14.60;;;8.37;;
5137;SDS011;53959;53.626;11.410;2022-11-20T05:49:46;9.57;;;7.90;;
5137;SDS011;53959;53.626;11.410;2022-11-20T05:52:11;10.00;;;7.77;;
5137;SDS011;53959;53.626;11.410;2022-11-20T05:54:37;10.03;;;7.80;;
5137;SDS011;53959;53.626;11.410;2022-11-20T05:57:02;10.00;;;7.30;;
5137;SDS011;53959;53.626;11.410;2022-11-20T05:59:28;11.20;;;7.00;;
5137;SDS011;53959;53.626;11.410;2022-11-20T06:01:54;8.30;;;6.30;;
5137;SDS011;53959;53.626;11.410;2022-11-20T06:04:19;9.70;;;7.37;;
5137;SDS011;53959;53.626;11.410;2022-11-20T06:06:45;8.17;;;6.67;;
5137;SDS011;53959;53.626;11.410;2022-11-20T06:09:10;7.73;;;6.53;;
5137;SDS011;53959;53.626;11.410;2022-11-20T06:11:36;9.10;;;6.67;;
5137;SDS011;53959;53.626;11.410;2022-11-20T06:14:02;8.97;;;7.40;;
5137;SDS011;53959;53.626;11.410;2022-11-20T06:16:27;7.47;;;6.30;;
5137;SDS011;53959;53.626;11.410;2022-11-20T06:18:53;8.13;;;6.90;;
5137;SDS011;53959;53.626;11.410;2022-11-20T06:21:19;9.90;;;7.00;;
5137;SDS011;53959;53.626;11.410;2022-11-20T06:23:46;8.43;;;6.20;;
5137;SDS011;53959;53.626;11.410;2022-11-20T06:26:18;9.63;;;7.17;;
5137;SDS011;53959;53.626;11.410;2022-11-20T06:28:45;8.83;;;7.47;;
5137;SDS011;53959;53.626;11.410;2022-11-20T06:31:11;7.27;;;6.53;;
5137;SDS011;53959;53.626;11.410;2022-11-20T06:33:38;16.00;;;8.37;;
5137;SDS011;53959;53.626;11.410;2022-11-20T06:36:04;9.73;;;7.30;;
5137;SDS011;53959;53.626;11.410;2022-11-20T06:38:30;11.50;;;7.00;;
5137;SDS011;53959;53.626;11.410;2022-11-20T06:40:56;12.10;;;6.87;;
5137;SDS011;53959;53.626;11.410;2022-11-20T06:43:22;11.63;;;8.30;;
5137;SDS011;53959;53.626;11.410;2022-11-20T06:45:54;14.33;;;8.13;;
5137;SDS011;53959;53.626;11.410;2022-11-20T06:48:21;11.67;;;8.00;;
5137;SDS011;53959;53.626;11.410;2022-11-20T06:50:48;12.50;;;8.37;;
5137;SDS011;53959;53.626;11.410;2022-11-20T06:53:13;13.00;;;8.13;;
5137;SDS011;53959;53.626;11.410;2022-11-20T06:55:45;12.23;;;8.40;;
5137;SDS011;53959;53.626;11.410;2022-11-20T06:58:12;11.50;;;8.13;;
5137;SDS011;53959;53.626;11.410;2022-11-20T07:00:39;14.67;;;9.50;;
5137;SDS011;53959;53.626;11.410;2022-11-20T07:03:05;11.30;;;8.67;;
5137;SDS011;53959;53.626;11.410;2022-11-20T07:05:31;15.40;;;9.20;;
5137;SDS011;53959;53.626;11.410;2022-11-20T07:07:57;14.43;;;9.40;;
5137;SDS011;53959;53.626;11.410;2022-11-20T07:10:23;11.20;;;9.47;;
5137;SDS011;53959;53.626;11.410;2022-11-20T07:12:49;12.60;;;8.97;;
5137;SDS011;53959;53.626;11.410;2022-11-20T07:15:16;14.83;;;10.00;;
5137;SDS011;53959;53.626;11.410;2022-11-20T07:17:42;16.17;;;9.70;;
5137;SDS011;53959;53.626;11.410;2022-11-20T07:20:07;13.37;;;9.20;;
5137;SDS011;53959;53.626;11.410;2022-11-20T07:22:33;13.33;;;9.10;;
5137;SDS011;53959;53.626;11.410;2022-11-20T07:24:59;24.63;;;10.20;;
5137;SDS011;53959;53.626;11.410;2022-11-20T07:27:24;21.73;;;12.20;;
5137;SDS011;53959;53.626;11.410;2022-11-20T07:29:50;49.83;;;19.43;;
5137;SDS011;53959;53.626;11.410;2022-11-20T07:32:15;17.63;;;11.20;;
5137;SDS011;53959;53.626;11.410;2022-11-20T07:34:41;18.03;;;8.90;;
5137;SDS011;53959;53.626;11.410;2022-11-20T07:37:06;17.13;;;9.63;;
5137;SDS011;53959;53.626;11.410;2022-11-20T07:39:32;14.90;;;10.33;;
5137;SDS011;53959;53.626;11.410;2022-11-20T07:41:57;18.20;;;10.27;;
5137;SDS011;53959;53.626;11.410;2022-11-20T07:44:23;14.83;;;10.60;;
5137;SDS011;53959;53.626;11.410;2022-11-20T07:46:48;15.43;;;9.70;;
5137;SDS011;53959;53.626;11.410;2022-11-20T07:49:14;15.23;;;10.47;;
5137;SDS011;53959;53.626;11.410;2022-11-20T07:51:39;13.03;;;9.00;;
5137;SDS011;53959;53.626;11.410;2022-11-20T07:54:05;19.53;;;10.00;;
5137;SDS011;53959;53.626;11.410;2022-11-20T07:56:30;11.43;;;9.07;;
5137;SDS011;53959;53.626;11.410;2022-11-20T07:58:56;10.40;;;8.57;;
5137;SDS011;53959;53.626;11.410;2022-11-20T08:01:21;11.33;;;8.60;;
5137;SDS011;53959;53.626;11.410;2022-11-20T08:03:47;11.13;;;7.53;;
5137;SDS011;53959;53.626;11.410;2022-11-20T08:06:12;11.67;;;7.80;;
5137;SDS011;53959;53.626;11.410;2022-11-20T08:08:39;13.23;;;8.30;;
5137;SDS011;53959;53.626;11.410;2022-11-20T08:11:05;13.43;;;8.50;;
5137;SDS011;53959;53.626;11.410;2022-11-20T08:13:49;8.90;;;7.50;;
5137;SDS011;53959;53.626;11.410;2022-11-20T08:16:33;8.30;;;6.97;;
5137;SDS011;53959;53.626;11.410;2022-11-20T08:18:59;11.80;;;7.70;;
5137;SDS011;53959;53.626;11.410;2022-11-20T08:21:24;9.37;;;6.93;;
5137;SDS011;53959;53.626;11.410;2022-11-20T08:23:50;10.03;;;8.17;;
5137;SDS011;53959;53.626;11.410;2022-11-20T08:26:15;10.57;;;7.23;;
5137;SDS011;53959;53.626;11.410;2022-11-20T08:28:41;8.40;;;6.23;;
5137;SDS011;53959;53.626;11.410;2022-11-20T08:31:07;9.70;;;7.00;;
5137;SDS011;53959;53.626;11.410;2022-11-20T08:33:32;7.90;;;5.90;;
5137;SDS011;53959;53.626;11.410;2022-11-20T08:36:01;10.73;;;6.80;;
5137;SDS011;53959;53.626;11.410;2022-11-20T08:38:28;8.03;;;6.57;;
5137;SDS011;53959;53.626;11.410;2022-11-20T08:41:00;8.43;;;6.90;;
5137;SDS011;53959;53.626;11.410;2022-11-20T08:43:46;6.23;;;5.63;;
5137;SDS011;53959;53.626;11.410;2022-11-20T08:46:12;9.23;;;6.97;;
5137;SDS011;53959;53.626;11.410;2022-11-20T08:48:37;7.87;;;6.10;;
5137;SDS011;53959;53.626;11.410;2022-11-20T08:51:03;6.40;;;5.80;;
5137;SDS011;53959;53.626;11.410;2022-11-20T08:53:29;9.33;;;6.60;;
5137;SDS011;53959;53.626;11.410;2022-11-20T08:55:54;7.23;;;6.50;;
5137;SDS011;53959;53.626;11.410;2022-11-20T08:58:21;10.83;;;6.90;;
5137;SDS011;53959;53.626;11.410;2022-11-20T09:00:47;14.20;;;6.80;;
5137;SDS011;53959;53.626;11.410;2022-11-20T09:03:12;7.20;;;6.27;;
5137;SDS011;53959;53.626;11.410;2022-11-20T09:05:38;12.67;;;8.50;;
5137;SDS011;53959;53.626;11.410;2022-11-20T09:08:04;12.50;;;6.40;;
5137;SDS011;53959;53.626;11.410;2022-11-20T09:10:29;7.00;;;5.90;;
5137;SDS011;53959;53.626;11.410;2022-11-20T09:12:55;6.43;;;5.80;;
5137;SDS011;53959;53.626;11.410;2022-11-20T09:15:21;6.23;;;5.63;;
5137;SDS011;53959;53.626;11.410;2022-11-20T09:17:54;9.33;;;6.60;;
5137;SDS011;53959;53.626;11.410;2022-11-20T09:20:21;6.67;;;5.67;;
5137;SDS011;53959;53.626;11.410;2022-11-20T09:22:46;8.20;;;6.33;;
5137;SDS011;53959;53.626;11.410;2022-11-20T09:25:12;11.57;;;6.00;;
5137;SDS011;53959;53.626;11.410;2022-11-20T09:27:38;5.90;;;5.23;;
5137;SDS011;53959;53.626;11.410;2022-11-20T09:30:04;5.63;;;5.07;;
5137;SDS011;53959;53.626;11.410;2022-11-20T09:32:30;8.20;;;6.10;;
5137;SDS011;53959;53.626;11.410;2022-11-20T09:34:55;6.47;;;5.80;;
5137;SDS011;53959;53.626;11.410;2022-11-20T09:37:21;6.90;;;5.53;;
5137;SDS011;53959;53.626;11.410;2022-11-20T09:39:46;9.07;;;6.70;;
5137;SDS011;53959;53.626;11.410;2022-11-20T09:45:13;7.73;;;6.10;;
5137;SDS011;53959;53.626;11.410;2022-11-20T09:54:00;10.30;;;6.10;;
5137;SDS011;53959;53.626;11.410;2022-11-20T09:56:36;11.13;;;7.17;;
5137;SDS011;53959;53.626;11.410;2022-11-20T09:59:06;8.40;;;6.37;;
5137;SDS011;53959;53.626;11.410;2022-11-20T10:01:39;9.60;;;6.80;;
5137;SDS011;53959;53.626;11.410;2022-11-20T10:04:06;11.10;;;6.67;;
5137;SDS011;53959;53.626;11.410;2022-11-20T10:07:04;7.80;;;6.47;;
5137;SDS011;53959;53.626;11.410;2022-11-20T10:09:39;14.43;;;8.63;;
5137;SDS011;53959;53.626;11.410;2022-11-20T10:15:03;7.03;;;5.80;;
5137;SDS011;53959;53.626;11.410;2022-11-20T10:17:46;10.03;;;6.40;;
5137;SDS011;53959;53.626;11.410;2022-11-20T10:20:19;8.30;;;6.27;;
5137;SDS011;53959;53.626;11.410;2022-11-20T10:28:30;9.57;;;6.70;;
5137;SDS011;53959;53.626;11.410;2022-11-20T10:31:17;8.77;;;6.30;;
5137;SDS011;53959;53.626;11.410;2022-11-20T10:33:56;9.13;;;7.20;;
5137;SDS011;53959;53.626;11.410;2022-11-20T10:36:26;12.40;;;7.60;;
5137;SDS011;53959;53.626;11.410;2022-11-20T10:39:04;12.10;;;7.17;;
5137;SDS011;53959;53.626;11.410;2022-11-20T10:41:46;11.03;;;5.80;;
5137;SDS011;53959;53.626;11.410;2022-11-20T10:44:17;9.30;;;7.40;;
5137;SDS011;53959;53.626;11.410;2022-11-20T10:47:13;10.30;;;7.60;;
5137;SDS011;53959;53.626;11.410;2022-11-20T10:49:41;15.00;;;7.67;;
5137;SDS011;53959;53.626;11.410;2022-11-20T11:00:26;84.03;;;28.87;;
5137;SDS011;53959;53.626;11.410;2022-11-20T11:02:52;8.23;;;6.50;;
5137;SDS011;53959;53.626;11.410;2022-11-20T11:07:45;7.60;;;6.40;;
5137;SDS011;53959;53.626;11.410;2022-11-20T11:10:15;9.07;;;6.47;;
5137;SDS011;53959;53.626;11.410;2022-11-20T11:12:45;23.83;;;10.30;;
5137;SDS011;53959;53.626;11.410;2022-11-20T11:15:24;5.10;;;4.60;;
5137;SDS011;53959;53.626;11.410;2022-11-20T11:17:52;5.77;;;4.90;;
5137;SDS011;53959;53.626;11.410;2022-11-20T11:20:18;10.90;;;6.93;;
5137;SDS011;53959;53.626;11.410;2022-11-20T11:22:50;12.70;;;6.53;;
5137;SDS011;53959;53.626;11.410;2022-11-20T11:25:36;6.97;;;5.70;;
5137;SDS011;53959;53.626;11.410;2022-11-20T11:30:43;7.00;;;5.37;;
5137;SDS011;53959;53.626;11.410;2022-11-20T11:33:11;9.33;;;6.60;;
5137;SDS011;53959;53.626;11.410;2022-11-20T11:35:44;6.80;;;6.10;;
5137;SDS011;53959;53.626;11.410;2022-11-20T11:38:12;6.00;;;5.37;;
5137;SDS011;53959;53.626;11.410;2022-11-20T11:40:41;6.30;;;5.17;;
5137;SDS011;53959;53.626;11.410;2022-11-20T11:43:15;8.07;;;5.40;;
5137;SDS011;53959;53.626;11.410;2022-11-20T11:46:02;5.30;;;4.80;;
5137;SDS011;53959;53.626;11.410;2022-11-20T11:48:40;6.83;;;6.13;;
5137;SDS011;53959;53.626;11.410;2022-11-20T11:51:07;5.53;;;5.00;;
5137;SDS011;53959;53.626;11.410;2022-11-20T11:53:34;6.17;;;5.67;;
5137;SDS011;53959;53.626;11.410;2022-11-20T11:56:07;6.27;;;5.13;;
5137;SDS011;53959;53.626;11.410;2022-11-20T11:58:44;4.70;;;4.30;;
5137;SDS011;53959;53.626;11.410;2022-11-20T12:04:00;4.80;;;4.40;;
5137;SDS011;53959;53.626;11.410;2022-11-20T12:06:30;5.63;;;5.10;;
5137;SDS011;53959;53.626;11.410;2022-11-20T12:09:01;5.57;;;5.07;;
5137;SDS011;53959;53.626;11.410;2022-11-20T12:11:49;6.53;;;5.70;;
5137;SDS011;53959;53.626;11.410;2022-11-20T12:14:22;5.37;;;4.53;;
5137;SDS011;53959;53.626;11.410;2022-11-20T12:17:01;4.60;;;4.20;;
5137;SDS011;53959;53.626;11.410;2022-11-20T12:19:31;4.47;;;4.07;;
5137;SDS011;53959;53.626;11.410;2022-11-20T12:22:02;10.40;;;4.80;;
5137;SDS011;53959;53.626;11.410;2022-11-20T12:24:51;4.67;;;4.07;;
5137;SDS011;53959;53.626;11.410;2022-11-20T12:30:15;7.83;;;5.40;;
5137;SDS011;53959;53.626;11.410;2022-11-20T12:38:08;5.07;;;3.80;;
5137;SDS011;53959;53.626;11.410;2022-11-20T12:44:08;3.77;;;3.37;;
5137;SDS011;53959;53.626;11.410;2022-11-20T12:47:22;3.50;;;3.20;;
5137;SDS011;53959;53.626;11.410;2022-11-20T12:52:51;3.87;;;3.50;;
5137;SDS011;53959;53.626;11.410;2022-11-20T13:00:37;4.53;;;4.13;;
5137;SDS011;53959;53.626;11.410;2022-11-20T13:05:37;4.73;;;4.37;;
5137;SDS011;53959;53.626;11.410;2022-11-20T13:08:14;3.30;;;3.10;;
5137;SDS011;53959;53.626;11.410;2022-11-20T13:13:23;2.63;;;2.53;;
5137;SDS011;53959;53.626;11.410;2022-11-20T13:16:09;2.90;;;2.70;;
5137;SDS011;53959;53.626;11.410;2022-11-20T13:18:44;2.50;;;2.40;;
5137;SDS011;53959;53.626;11.410;2022-11-20T13:21:17;2.87;;;2.70;;
5137;SDS011;53959;53.626;11.410;2022-11-20T13:23:47;2.63;;;2.50;;
5137;SDS011;53959;53.626;11.410;2022-11-20T13:26:20;2.43;;;2.30;;
5137;SDS011;53959;53.626;11.410;2022-11-20T13:28:58;2.80;;;2.60;;
5137;SDS011;53959;53.626;11.410;2022-11-20T13:31:33;2.23;;;2.13;;
5137;SDS011;53959;53.626;11.410;2022-11-20T13:34:01;2.77;;;2.67;;
5137;SDS011;53959;53.626;11.410;2022-11-20T13:36:30;2.63;;;2.43;;
5137;SDS011;53959;53.626;11.410;2022-11-20T13:38:57;2.60;;;2.50;;
5137;SDS011;53959;53.626;11.410;2022-11-20T13:41:24;2.53;;;2.43;;
5137;SDS011;53959;53.626;11.410;2022-11-20T13:44:04;2.93;;;2.57;;
5137;SDS011;53959;53.626;11.410;2022-11-20T13:46:48;3.70;;;2.80;;
5137;SDS011;53959;53.626;11.410;2022-11-20T13:49:26;2.70;;;2.53;;
5137;SDS011;53959;53.626;11.410;2022-11-20T13:55:28;9.50;;;3.87;;
5137;SDS011;53959;53.626;11.410;2022-11-20T13:58:44;2.40;;;2.30;;
5137;SDS011;53959;53.626;11.410;2022-11-20T14:01:20;3.83;;;2.77;;
5137;SDS011;53959;53.626;11.410;2022-11-20T14:03:48;2.63;;;2.47;;
5137;SDS011;53959;53.626;11.410;2022-11-20T14:06:25;2.97;;;2.77;;
5137;SDS011;53959;53.626;11.410;2022-11-20T14:08:53;4.10;;;2.40;;
5137;SDS011;53959;53.626;11.410;2022-11-20T14:11:23;2.90;;;2.70;;
5137;SDS011;53959;53.626;11.410;2022-11-20T14:14:02;3.13;;;2.13;;
5137;SDS011;53959;53.626;11.410;2022-11-20T14:16:33;2.87;;;2.67;;
5137;SDS011;53959;53.626;11.410;2022-11-20T14:21:44;3.00;;;2.80;;
5137;SDS011;53959;53.626;11.410;2022-11-20T14:24:18;3.43;;;3.20;;
5137;SDS011;53959;53.626;11.410;2022-11-20T14:26:45;3.33;;;2.80;;
5137;SDS011;53959;53.626;11.410;2022-11-20T14:29:27;3.27;;;3.07;;
5137;SDS011;53959;53.626;11.410;2022-11-20T14:31:57;3.07;;;2.90;;
5137;SDS011;53959;53.626;11.410;2022-11-20T14:34:24;3.20;;;3.00;;
5137;SDS011;53959;53.626;11.410;2022-11-20T14:36:53;5.67;;;4.23;;
5137;SDS011;53959;53.626;11.410;2022-11-20T14:39:26;4.13;;;3.70;;
5137;SDS011;53959;53.626;11.410;2022-11-20T14:41:56;3.80;;;3.43;;
5137;SDS011;53959;53.626;11.410;2022-11-20T14:44:27;6.57;;;4.10;;
5137;SDS011;53959;53.626;11.410;2022-11-20T14:46:56;3.03;;;2.83;;
5137;SDS011;53959;53.626;11.410;2022-11-20T14:49:22;4.17;;;3.77;;
5137;SDS011;53959;53.626;11.410;2022-11-20T14:51:58;3.60;;;3.40;;
5137;SDS011;53959;53.626;11.410;2022-11-20T14:54:24;8.20;;;5.20;;
5137;SDS011;53959;53.626;11.410;2022-11-20T14:56:58;3.77;;;3.47;;
5137;SDS011;53959;53.626;11.410;2022-11-20T14:59:27;3.33;;;3.10;;
5137;SDS011;53959;53.626;11.410;2022-11-20T15:01:59;3.90;;;3.60;;
5137;SDS011;53959;53.626;11.410;2022-11-20T15:04:26;3.70;;;3.40;;
5137;SDS011;53959;53.626;11.410;2022-11-20T15:06:53;3.50;;;3.20;;
5137;SDS011;53959;53.626;11.410;2022-11-20T15:09:20;3.70;;;3.40;;
5137;SDS011;53959;53.626;11.410;2022-11-20T15:11:53;5.80;;;4.00;;
5137;SDS011;53959;53.626;11.410;2022-11-20T15:14:24;8.17;;;5.20;;
5137;SDS011;53959;53.626;11.410;2022-11-20T15:16:51;3.83;;;3.50;;
5137;SDS011;53959;53.626;11.410;2022-11-20T15:19:21;3.63;;;3.33;;
5137;SDS011;53959;53.626;11.410;2022-11-20T15:21:51;4.27;;;3.70;;
5137;SDS011;53959;53.626;11.410;2022-11-20T15:24:17;5.90;;;3.80;;
5137;SDS011;53959;53.626;11.410;2022-11-20T15:26:43;4.87;;;3.77;;
5137;SDS011;53959;53.626;11.410;2022-11-20T15:29:13;6.13;;;3.50;;
5137;SDS011;53959;53.626;11.410;2022-11-20T15:31:43;4.63;;;3.70;;
5137;SDS011;53959;53.626;11.410;2022-11-20T15:34:13;4.73;;;4.00;;
5137;SDS011;53959;53.626;11.410;2022-11-20T15:36:40;4.70;;;3.70;;
5137;SDS011;53959;53.626;11.410;2022-11-20T15:39:07;4.33;;;3.93;;
5137;SDS011;53959;53.626;11.410;2022-11-20T15:41:34;5.60;;;3.90;;
5137;SDS011;53959;53.626;11.410;2022-11-20T15:44:00;4.40;;;3.90;;
5137;SDS011;53959;53.626;11.410;2022-11-20T15:46:26;4.60;;;4.20;;
5137;SDS011;53959;53.626;11.410;2022-11-20T15:48:55;6.77;;;3.77;;
5137;SDS011;53959;53.626;11.410;2022-11-20T15:51:38;4.20;;;3.80;;
5137;SDS011;53959;53.626;11.410;2022-11-20T15:54:09;4.30;;;3.90;;
5137;SDS011;53959;53.626;11.410;2022-11-20T15:56:37;5.67;;;3.90;;
5137;SDS011;53959;53.626;11.410;2022-11-20T15:59:02;3.93;;;3.50;;
5137;SDS011;53959;53.626;11.410;2022-11-20T16:01:28;5.07;;;4.17;;